Time;durP1;ratioP1;P1;durP2;ratioP2;P2;SDS_P1;SDS_P2;PMS_P1;PMS_P2;Temp;Humidity;BMP_temperature;BMP_pressure;BME280_temperature;BME280_humidity;BME280_pressure;Samples;Min_cycle;Max_cycle;Signal;HPM_P1;HPM_P2
2024/03/25 00:00:43;;;;;;;;;;;;;;;;;;106881;1250;61454;-81
2024/03/25 00:03:29;;;;;;;;;;;;;;;;;;106935;1250;64540;-79
2024/03/25 00:05:57;;;;;;;;;;;;;;;;;;106890;1249;61999;-81
2024/03/25 00:08:23;;;;;;;;;;;;;;;;;;106931;1263;61983;-81
2024/03/25 00:10:49;;;;;;;;;;;;;;;;;;106872;1251;62010;-81
2024/03/25 00:13:15;;;;;;;;;;;;;;;;;;106915;1251;62100;-81
2024/03/25 00:15:43;;;;;;;;;;;;;;;;;;106884;1250;62143;-79
2024/03/25 00:18:11;;;;;;;;;;;;;;;;;;106926;1251;62204;-79
2024/03/25 00:20:37;;;;;;;;;;;;;;;;;;106901;1250;62129;-82
2024/03/25 00:23:03;;;;;;;;;;;;;;;;;;106919;1250;62010;-79
2024/03/25 00:25:30;;;;;;;;;;;;;;;;;;106943;1250;62473;-79
2024/03/25 00:27:57;;;;;;;;;;;;;;;;;;106894;1250;61948;-81
2024/03/25 00:30:24;;;;;;;;;;;;;;;;;;106884;1254;62146;-80
2024/03/25 00:32:50;;;;;;;;;;;;;;;;;;109043;1250;60042;-79
2024/03/25 00:35:17;;;;;;;;;;;;;;;;;;109720;1249;59686;-82
2024/03/25 00:37:45;;;;;;;;;;;;;;;;;;109724;1249;59950;-80
2024/03/25 00:40:11;;;;;;;;;;;;;;;;;;107456;1250;63950;-81
2024/03/25 00:42:37;;;;;;;;;;;;;;;;;;107005;1250;62079;-79
2024/03/25 00:45:05;;;;;;;;;;;;;;;;;;106918;1250;62157;-80
2024/03/25 00:47:31;;;;;;;;;;;;;;;;;;106873;1251;62122;-79
2024/03/25 00:49:58;;;;;;;;;;;;;;;;;;106930;1250;62038;-82
2024/03/25 00:52:24;;;;;;;;;;;;;;;;;;106903;1250;62149;-82
2024/03/25 00:54:50;;;;;;;;;;;;;;;;;;106917;1250;62144;-79
2024/03/25 00:57:16;;;;;;;;;;;;;;;;;;106934;1254;62167;-79
2024/03/25 00:59:42;;;;;;;;;;;;;;;;;;106891;1251;62141;-79
2024/03/25 01:02:09;;;;;;;;;;;;;;;;;;106890;1250;62055;-81
2024/03/25 01:04:35;;;;;;;;;;;;;;;;;;106906;1250;62162;-82
2024/03/25 01:07:01;;;;;;;;;;;;;;;;;;106922;1253;62026;-81
2024/03/25 01:09:27;;;;;;;;;;;;;;;;;;106886;1256;62106;-79
2024/03/25 01:11:53;;;;;;;;;;;;;;;;;;106898;1250;62149;-81
2024/03/25 01:14:19;;;;;;;;;;;;;;;;;;106951;1250;62162;-81
2024/03/25 01:16:46;;;;;;;;;;;;;;;;;;106940;1250;62150;-79
2024/03/25 01:19:12;;;;;;;;;;;;;;;;;;106879;1254;62093;-79
2024/03/25 01:21:38;;;;;;;;;;;;;;;;;;106876;1254;62039;-79
2024/03/25 01:24:04;;;;;;;;;;;;;;;;;;106889;1251;62143;-81
2024/03/25 01:26:31;;;;;;;;;;;;;;;;;;109703;1250;59675;-79
2024/03/25 01:28:57;;;;;;;;;;;;;;;;;;109736;1250;59630;-82
2024/03/25 01:31:23;;;;;;;;;;;;;;;;;;108140;1251;62111;-81
2024/03/25 01:33:49;;;;;;;;;;;;;;;;;;106874;1250;62084;-81
2024/03/25 01:36:17;;;;;;;;;;;;;;;;;;106931;1250;62123;-79
2024/03/25 01:38:43;;;;;;;;;;;;;;;;;;106888;1250;62551;-79
2024/03/25 01:41:09;;;;;;;;;;;;;;;;;;106889;1254;62595;-81
2024/03/25 01:43:35;;;;;;;;;;;;;;;;;;106917;1250;62173;-81
2024/03/25 01:46:02;;;;;;;;;;;;;;;;;;106966;1254;62419;-79
2024/03/25 01:48:28;;;;;;;;;;;;;;;;;;107076;1250;62102;-82
2024/03/25 01:50:54;;;;;;;;;;;;;;;;;;106932;1251;62070;-81
2024/03/25 01:53:20;;;;;;;;;;;;;;;;;;106910;1250;63090;-80
2024/03/25 01:55:46;;;;;;;;;;;;;;;;;;106900;1250;62118;-79
2024/03/25 01:58:12;;;;;;;;;;;;;;;;;;106907;1250;62033;-81
2024/03/25 02:00:39;;;;;;;;;;;;;;;;;;106891;1251;62147;-78
2024/03/25 02:03:05;;;;;;;;;;;;;;;;;;106856;1250;61927;-79
2024/03/25 02:05:31;;;;;;;;;;;;;;;;;;106415;1254;62060;-81
2024/03/25 02:07:58;;;;;;;;;;;;;;;;;;106420;1254;62170;-79
2024/03/25 02:10:24;;;;;;;;;;;;;;;;;;106427;1254;62141;-81
2024/03/25 02:12:50;;;;;;;;;;;;;;;;;;106474;1250;62528;-81
2024/03/25 02:15:16;;;;;;;;;;;;;;;;;;106919;1249;62118;-81
2024/03/25 02:17:42;;;;;;;;;;;;;;;;;;106928;1254;63158;-78
2024/03/25 02:20:09;;;;;;;;;;;;;;;;;;106920;1253;62568;-79
2024/03/25 02:22:36;;;;;;;;;;;;;;;;;;106873;1254;62143;-78
2024/03/25 02:25:02;;;;;;;;;;;;;;;;;;106892;1249;64148;-78
2024/03/25 02:27:30;;;;;;;;;;;;;;;;;;106437;1250;62162;-78
2024/03/25 02:29:57;;;;;;;;;;;;;;;;;;106409;1250;61944;-80
2024/03/25 02:32:23;;;;;;;;;;;;;;;;;;106918;1253;62086;-78
2024/03/25 02:34:49;;;;;;;;;;;;;;;;;;106434;1255;62173;-81
2024/03/25 02:37:15;;;;;;;;;;;;;;;;;;106455;1250;63185;-81
2024/03/25 02:39:41;;;;;;;;;;;;;;;;;;106938;1250;62145;-78
2024/03/25 02:42:07;;;;;;;;;;;;;;;;;;106887;1250;62175;-81
2024/03/25 02:44:34;;;;;;;;;;;;;;;;;;106908;1250;62078;-81
2024/03/25 02:47:00;;;;;;;;;;;;;;;;;;106960;1253;62151;-81
2024/03/25 02:49:26;;;;;;;;;;;;;;;;;;106884;1256;62162;-79
2024/03/25 02:51:52;;;;;;;;;;;;;;;;;;106940;1250;62008;-81
2024/03/25 02:54:19;;;;;;;;;;;;;;;;;;106947;1250;62156;-80
2024/03/25 02:56:45;;;;;;;;;;;;;;;;;;106901;1250;62009;-80
2024/03/25 02:59:11;;;;;;;;;;;;;;;;;;106870;1250;62077;-79
2024/03/25 03:01:37;;;;;;;;;;;;;;;;;;106899;1250;62065;-78
2024/03/25 03:04:03;;;;;;;;;;;;;;;;;;106395;1254;62149;-79
2024/03/25 03:06:29;;;;;;;;;;;;;;;;;;106371;1251;63166;-81
2024/03/25 03:08:56;;;;;;;;;;;;;;;;;;106938;1250;63197;-81
2024/03/25 03:11:22;;;;;;;;;;;;;;;;;;106892;1250;62029;-79
2024/03/25 03:13:48;;;;;;;;;;;;;;;;;;106413;1250;62092;-78
2024/03/25 03:16:14;;;;;;;;;;;;;;;;;;106382;1250;62087;-80
2024/03/25 03:18:40;;;;;;;;;;;;;;;;;;106402;1256;62054;-78
2024/03/25 03:21:06;;;;;;;;;;;;;;;;;;106436;1250;64301;-79
2024/03/25 03:23:32;;;;;;;;;;;;;;;;;;106394;1250;62023;-78
2024/03/25 03:25:59;;;;;;;;;;;;;;;;;;106456;1256;63070;-78
2024/03/25 03:28:25;;;;;;;;;;;;;;;;;;106411;1254;62146;-78
2024/03/25 03:30:51;;;;;;;;;;;;;;;;;;106438;1251;62076;-80
2024/03/25 03:33:18;;;;;;;;;;;;;;;;;;106841;1254;62063;-81
2024/03/25 03:35:44;;;;;;;;;;;;;;;;;;106930;1250;62070;-78
2024/03/25 03:38:10;;;;;;;;;;;;;;;;;;106412;1250;62170;-78
2024/03/25 03:40:36;;;;;;;;;;;;;;;;;;106508;1250;63098;-78
2024/03/25 03:43:02;;;;;;;;;;;;;;;;;;106552;1254;62268;-78
2024/03/25 03:45:29;;;;;;;;;;;;;;;;;;106488;1250;62153;-78
2024/03/25 03:47:55;;;;;;;;;;;;;;;;;;106480;1250;62628;-81
2024/03/25 03:50:21;;;;;;;;;;;;;;;;;;106449;1250;62012;-80
2024/03/25 03:52:47;;;;;;;;;;;;;;;;;;106408;1256;62060;-81
2024/03/25 03:55:14;;;;;;;;;;;;;;;;;;106431;1250;62424;-81
2024/03/25 03:57:42;;;;;;;;;;;;;;;;;;106396;1255;61928;-80
2024/03/25 04:00:08;;;;;;;;;;;;;;;;;;106931;1250;62161;-79
2024/03/25 04:02:34;;;;;;;;;;;;;;;;;;109270;1250;59668;-81
2024/03/25 04:05:01;;;;;;;;;;;;;;;;;;109705;1250;59901;-81
2024/03/25 04:07:28;;;;;;;;;;;;;;;;;;109732;1249;59750;-81
2024/03/25 04:09:54;;;;;;;;;;;;;;;;;;109206;1253;62025;-78
2024/03/25 04:12:21;;;;;;;;;;;;;;;;;;106897;1250;62237;-78
2024/03/25 04:14:47;;;;;;;;;;;;;;;;;;106906;1250;62138;-78
2024/03/25 04:17:13;;;;;;;;;;;;;;;;;;108738;1250;60920;-78
2024/03/25 04:19:39;;;;;;;;;;;;;;;;;;106862;1250;62041;-81
2024/03/25 04:22:07;;;;;;;;;;;;;;;;;;106878;1255;62237;-78
2024/03/25 04:24:34;;;;;;;;;;;;;;;;;;107854;1250;62055;-79
2024/03/25 04:27:00;;;;;;;;;;;;;;;;;;108514;1250;62674;-78
2024/03/25 04:29:26;;;;;;;;;;;;;;;;;;106893;1250;62253;-81
2024/03/25 04:31:52;;;;;;;;;;;;;;;;;;106944;1254;62093;-78
2024/03/25 04:34:20;;;;;;;;;;;;;;;;;;106393;1250;61917;-78
2024/03/25 04:36:47;;;;;;;;;;;;;;;;;;106426;1251;62048;-78
2024/03/25 04:39:13;;;;;;;;;;;;;;;;;;106392;1253;62131;-78
2024/03/25 04:41:40;;;;;;;;;;;;;;;;;;106367;1250;61957;-78
2024/03/25 04:44:06;;;;;;;;;;;;;;;;;;106376;1251;63678;-78
2024/03/25 04:46:32;;;;;;;;;;;;;;;;;;106393;1250;63177;-80
2024/03/25 04:48:59;;;;;;;;;;;;;;;;;;106404;1250;62173;-80
2024/03/25 04:51:25;;;;;;;;;;;;;;;;;;106447;1250;62136;-80
2024/03/25 04:53:51;;;;;;;;;;;;;;;;;;106422;1256;62141;-80
2024/03/25 04:56:17;;;;;;;;;;;;;;;;;;106878;1250;62141;-80
2024/03/25 04:58:44;;;;;;;;;;;;;;;;;;106883;1255;62101;-80
2024/03/25 05:01:10;;;;;;;;;;;;;;;;;;106890;1251;62021;-81
2024/03/25 05:03:36;;;;;;;;;;;;;;;;;;106838;1251;62166;-80
2024/03/25 05:06:02;;;;;;;;;;;;;;;;;;106916;1255;62116;-78
2024/03/25 05:08:29;;;;;;;;;;;;;;;;;;109605;1251;59727;-79
2024/03/25 05:10:55;;;;;;;;;;;;;;;;;;109629;1251;59617;-81
2024/03/25 05:13:21;;;;;;;;;;;;;;;;;;107997;1254;62147;-81
2024/03/25 05:15:47;;;;;;;;;;;;;;;;;;106913;1250;62170;-80
2024/03/25 05:18:13;;;;;;;;;;;;;;;;;;106933;1250;62672;-80
2024/03/25 05:20:39;;;;;;;;;;;;;;;;;;106881;1250;61952;-78
2024/03/25 05:23:05;;;;;;;;;;;;;;;;;;106385;1250;62186;-78
2024/03/25 05:25:32;;;;;;;;;;;;;;;;;;106409;1253;62147;-81
2024/03/25 05:27:58;;;;;;;;;;;;;;;;;;106397;1253;62169;-81
2024/03/25 05:30:24;;;;;;;;;;;;;;;;;;106858;1253;62070;-81
2024/03/25 05:32:50;;;;;;;;;;;;;;;;;;106900;1250;62162;-78
2024/03/25 05:35:16;;;;;;;;;;;;;;;;;;106867;1253;62083;-78
2024/03/25 05:37:42;;;;;;;;;;;;;;;;;;106432;1250;62599;-78
2024/03/25 05:40:11;;;;;;;;;;;;;;;;;;106442;1254;62030;-81
2024/03/25 05:42:37;;;;;;;;;;;;;;;;;;106426;1250;62082;-81
2024/03/25 05:45:03;;;;;;;;;;;;;;;;;;106938;1250;62061;-79
2024/03/25 05:47:30;;;;;;;;;;;;;;;;;;106956;1253;62916;-79
2024/03/25 05:49:56;;;;;;;;;;;;;;;;;;106900;1253;62159;-81
2024/03/25 05:52:22;;;;;;;;;;;;;;;;;;106914;1254;63301;-80
2024/03/25 05:54:48;;;;;;;;;;;;;;;;;;107136;1253;62077;-81
2024/03/25 05:57:15;;;;;;;;;;;;;;;;;;106995;1253;62153;-81
2024/03/25 05:59:41;;;;;;;;;;;;;;;;;;106978;1254;62037;-78
2024/03/25 06:02:07;;;;;;;;;;;;;;;;;;106983;1253;62144;-80
2024/03/25 06:04:33;;;;;;;;;;;;;;;;;;106950;1253;62058;-78
2024/03/25 06:06:59;;;;;;;;;;;;;;;;;;106566;1250;62050;-82
2024/03/25 06:09:26;;;;;;;;;;;;;;;;;;106907;1254;199947;-81
2024/03/25 06:11:52;;;;;;;;;;;;;;;;;;107139;1254;62033;-81
2024/03/25 06:14:18;;;;;;;;;;;;;;;;;;107987;1250;62073;-78
2024/03/25 06:16:44;;;;;;;;;;;;;;;;;;108533;1253;62119;-79
2024/03/25 06:19:10;;;;;;;;;;;;;;;;;;108712;1250;62174;-81
2024/03/25 06:21:36;;;;;;;;;;;;;;;;;;108380;1254;62090;-82
2024/03/25 06:24:03;;;;;;;;;;;;;;;;;;106900;1252;62088;-82
2024/03/25 06:26:29;;;;;;;;;;;;;;;;;;106955;1255;62147;-81
2024/03/25 06:28:55;;;;;;;;;;;;;;;;;;106918;1252;62192;-81
2024/03/25 06:34:21;;;;;;;;;;;;;;;;;;106849;1254;61952;-81
2024/03/25 06:36:47;;;;;;;;;;;;;;;;;;106895;1255;62058;-81
2024/03/25 06:39:13;;;;;;;;;;;;;;;;;;106938;1251;62033;-79
2024/03/25 06:41:40;;;;;;;;;;;;;;;;;;106899;1253;62162;-79
2024/03/25 06:44:06;;;;;;;;;;;;;;;;;;106868;1250;62223;-79
2024/03/25 06:46:32;;;;;;;;;;;;;;;;;;106931;1249;62061;-79
2024/03/25 06:48:58;;;;;;;;;;;;;;;;;;106917;1251;62070;-82
2024/03/25 06:51:24;;;;;;;;;;;;;;;;;;106993;1253;62149;-79
2024/03/25 06:53:51;;;;;;;;;;;;;;;;;;106973;1255;62240;-79
2024/03/25 06:56:17;;;;;;;;;;;;;;;;;;106919;1251;63167;-79
2024/03/25 06:58:43;;;;;;;;;;;;;;;;;;107187;1264;62155;-82
2024/03/25 07:01:09;;;;;;;;;;;;;;;;;;107097;1254;61734;-82
2024/03/25 07:03:35;;;;;;;;;;;;;;;;;;107299;1254;63142;-81
2024/03/25 07:06:02;;;;;;;;;;;;;;;;;;107225;1251;62169;-82
2024/03/25 07:08:28;;;;;;;;;;;;;;;;;;109635;1250;60022;-82
2024/03/25 07:10:54;;;;;;;;;;;;;;;;;;109732;1251;59733;-80
2024/03/25 07:13:20;;;;;;;;;;;;;;;;;;109740;1249;59692;-78
2024/03/25 07:15:46;;;;;;;;;;;;;;;;;;108526;1250;62725;-82
2024/03/25 07:18:13;;;;;;;;;;;;;;;;;;107086;1254;62048;-79
2024/03/25 07:20:39;;;;;;;;;;;;;;;;;;107238;1256;62145;-82
2024/03/25 07:23:05;;;;;;;;;;;;;;;;;;107197;1251;62153;-82
2024/03/25 07:25:31;;;;;;;;;;;;;;;;;;107192;1253;62489;-79
2024/03/25 07:27:57;;;;;;;;;;;;;;;;;;107259;1250;62006;-82
2024/03/25 07:30:30;;;;;;;;;;;;;;;;;;107096;1254;62133;-81
2024/03/25 07:32:56;;;;;;;;;;;;;;;;;;107110;1256;62169;-79
2024/03/25 07:35:22;;;;;;;;;;;;;;;;;;107000;1254;62070;-82
2024/03/25 07:37:51;;;;;;;;;;;;;;;;;;107007;1253;62248;-81
2024/03/25 07:40:17;;;;;;;;;;;;;;;;;;107021;1253;62849;-82
2024/03/25 07:42:43;;;;;;;;;;;;;;;;;;107106;1254;62131;-81
2024/03/25 07:45:09;;;;;;;;;;;;;;;;;;107162;1254;62132;-82
2024/03/25 07:47:36;;;;;;;;;;;;;;;;;;107116;1254;63174;-80
2024/03/25 07:50:02;;;;;;;;;;;;;;;;;;107167;1253;62150;-81
2024/03/25 07:52:28;;;;;;;;;;;;;;;;;;107148;1251;62496;-82
2024/03/25 07:54:54;;;;;;;;;;;;;;;;;;107214;1251;60099;-81
2024/03/25 07:57:20;;;;;;;;;;;;;;;;;;107032;1256;62109;-79
2024/03/25 07:59:46;;;;;;;;;;;;;;;;;;107109;1254;62121;-82
2024/03/25 08:02:12;;;;;;;;;;;;;;;;;;106983;1254;61832;-79
2024/03/25 08:04:39;;;;;;;;;;;;;;;;;;107485;1251;62045;-79
2024/03/25 08:07:05;;;;;;;;;;;;;;;;;;107333;1251;62061;-79
2024/03/25 08:09:31;;;;;;;;;;;;;;;;;;107309;1251;62032;-79
2024/03/25 08:11:57;;;;;;;;;;;;;;;;;;107098;1253;62150;-82
2024/03/25 08:14:23;;;;;;;;;;;;;;;;;;107525;1253;62452;-82
2024/03/25 08:16:50;;;;;;;;;;;;;;;;;;107547;1250;60487;-82
2024/03/25 08:19:16;;;;;;;;;;;;;;;;;;107644;1253;62156;-81
2024/03/25 08:21:42;;;;;;;;;;;;;;;;;;107284;1250;62070;-79
2024/03/25 08:24:08;;;;;;;;;;;;;;;;;;107319;1251;62098;-82
2024/03/25 08:26:34;;;;;;;;;;;;;;;;;;107224;1250;62144;-82
2024/03/25 08:29:00;;;;;;;;;;;;;;;;;;107246;1260;62073;-79
2024/03/25 08:31:27;;;;;;;;;;;;;;;;;;107020;1250;63281;-79
2024/03/25 08:33:53;;;;;;;;;;;;;;;;;;107084;1251;62391;-82
2024/03/25 08:36:19;;;;;;;;;;;;;;;;;;107142;1255;62188;-81
2024/03/25 08:38:45;;;;;;;;;;;;;;;;;;107240;1253;61917;-79
2024/03/25 08:41:11;;;;;;;;;;;;;;;;;;107090;1251;63542;-79
2024/03/25 08:43:37;;;;;;;;;;;;;;;;;;107091;1251;62072;-82
2024/03/25 08:46:04;;;;;;;;;;;;;;;;;;107127;1251;61968;-82
2024/03/25 08:48:30;;;;;;;;;;;;;;;;;;107098;1250;62135;-82
2024/03/25 08:50:56;;;;;;;;;;;;;;;;;;107027;1251;62154;-81
2024/03/25 08:53:22;;;;;;;;;;;;;;;;;;107010;1255;61989;-81
2024/03/25 08:55:49;;;;;;;;;;;;;;;;;;106991;1254;61074;-80
2024/03/25 08:58:15;;;;;;;;;;;;;;;;;;107059;1251;60588;-78
2024/03/25 09:00:41;;;;;;;;;;;;;;;;;;106510;1252;62172;-81
2024/03/25 09:03:08;;;;;;;;;;;;;;;;;;106452;1254;62055;-78
2024/03/25 09:05:34;;;;;;;;;;;;;;;;;;106465;1253;62160;-79
2024/03/25 09:08:00;;;;;;;;;;;;;;;;;;106421;1254;62076;-81
2024/03/25 09:13:12;;;;;;;;;;;;;;;;;;106438;1252;62744;-78
2024/03/25 09:15:38;;;;;;;;;;;;;;;;;;106563;1251;62032;-78
2024/03/25 09:18:04;;;;;;;;;;;;;;;;;;106538;1258;62119;-81
2024/03/25 09:20:30;;;;;;;;;;;;;;;;;;106915;1254;62166;-78
2024/03/25 09:22:56;;;;;;;;;;;;;;;;;;106512;1253;60087;-78
2024/03/25 09:25:23;;;;;;;;;;;;;;;;;;106487;1254;62154;-78
2024/03/25 09:27:49;;;;;;;;;;;;;;;;;;106369;1254;62089;-78
2024/03/25 09:30:15;;;;;;;;;;;;;;;;;;106407;1255;62034;-79
2024/03/25 09:32:42;;;;;;;;;;;;;;;;;;106460;1251;62492;-78
2024/03/25 09:35:08;;;;;;;;;;;;;;;;;;106462;1251;61939;-78
2024/03/25 09:37:34;;;;;;;;;;;;;;;;;;106468;1256;62017;-81
2024/03/25 09:40:01;;;;;;;;;;;;;;;;;;106391;1251;62006;-78
2024/03/25 09:42:27;;;;;;;;;;;;;;;;;;106420;1254;62109;-81
2024/03/25 09:44:53;;;;;;;;;;;;;;;;;;106391;1255;63187;-78
2024/03/25 09:47:20;;;;;;;;;;;;;;;;;;106498;1253;62114;-81
2024/03/25 09:49:46;;;;;;;;;;;;;;;;;;106492;1251;62917;-81
2024/03/25 09:52:12;;;;;;;;;;;;;;;;;;106365;1254;62166;-78
2024/03/25 09:54:38;;;;;;;;;;;;;;;;;;106383;1253;62162;-81
2024/03/25 09:57:04;;;;;;;;;;;;;;;;;;106893;1251;62110;-78
2024/03/25 09:59:30;;;;;;;;;;;;;;;;;;107046;1251;62127;-79
2024/03/25 10:01:56;;;;;;;;;;;;;;;;;;106642;1254;62070;-81
2024/03/25 10:04:23;;;;;;;;;;;;;;;;;;106858;1249;62156;-81
2024/03/25 10:06:49;;;;;;;;;;;;;;;;;;106884;1253;62607;-78
2024/03/25 10:09:15;;;;;;;;;;;;;;;;;;106518;1254;62197;-78
2024/03/25 10:11:41;;;;;;;;;;;;;;;;;;106349;1251;62158;-78
2024/03/25 10:14:08;;;;;;;;;;;;;;;;;;106399;1251;62029;-78
2024/03/25 10:16:35;;;;;;;;;;;;;;;;;;106471;1254;61958;-81
2024/03/25 10:19:01;;;;;;;;;;;;;;;;;;107110;1254;62181;-78
2024/03/25 10:21:27;;;;;;;;;;;;;;;;;;106820;1254;62153;-78
2024/03/25 10:23:55;;;;;;;;;;;;;;;;;;106880;1251;62034;-78
2024/03/25 10:26:21;;;;;;;;;;;;;;;;;;106432;1251;62134;-80
2024/03/25 10:28:48;;;;;;;;;;;;;;;;;;106572;1253;62888;-79
2024/03/25 10:31:14;;;;;;;;;;;;;;;;;;106433;1254;62122;-78
2024/03/25 10:33:40;;;;;;;;;;;;;;;;;;106575;1251;62147;-78
2024/03/25 10:36:06;;;;;;;;;;;;;;;;;;106484;1251;62147;-81
2024/03/25 10:38:32;;;;;;;;;;;;;;;;;;107056;1251;62060;-78
2024/03/25 10:40:58;;;;;;;;;;;;;;;;;;106414;1251;62147;-78
2024/03/25 10:43:24;;;;;;;;;;;;;;;;;;106503;1253;61900;-79
2024/03/25 10:45:51;;;;;;;;;;;;;;;;;;106544;1253;62153;-78
2024/03/25 10:48:17;;;;;;;;;;;;;;;;;;106537;1250;62066;-78
2024/03/25 10:50:43;;;;;;;;;;;;;;;;;;106420;1251;62624;-82
2024/03/25 10:53:09;;;;;;;;;;;;;;;;;;107009;1253;62133;-82
2024/03/25 10:55:35;;;;;;;;;;;;;;;;;;106856;1253;63217;-80
2024/03/25 10:58:02;;;;;;;;;;;;;;;;;;107020;1254;62134;-82
2024/03/25 11:00:29;;;;;;;;;;;;;;;;;;106789;1251;62216;-80
2024/03/25 11:02:55;;;;;;;;;;;;;;;;;;106879;1250;62142;-80
2024/03/25 11:05:21;;;;;;;;;;;;;;;;;;106735;1251;61966;-83
2024/03/25 11:07:48;;;;;;;;;;;;;;;;;;106929;1253;62179;-79
2024/03/25 11:10:14;;;;;;;;;;;;;;;;;;107179;1251;62150;-79
2024/03/25 11:12:40;;;;;;;;;;;;;;;;;;106835;1251;62076;-82
2024/03/25 11:15:09;;;;;;;;;;;;;;;;;;106804;1248;62142;-79
2024/03/25 11:17:36;;;;;;;;;;;;;;;;;;106890;1251;62064;-79
2024/03/25 11:20:02;;;;;;;;;;;;;;;;;;106945;1253;62070;-81
2024/03/25 11:22:28;;;;;;;;;;;;;;;;;;106968;1251;62064;-83
2024/03/25 11:24:54;;;;;;;;;;;;;;;;;;106804;1251;62070;-81
2024/03/25 11:27:20;;;;;;;;;;;;;;;;;;106853;1251;62180;-79
2024/03/25 11:29:46;;;;;;;;;;;;;;;;;;106535;1253;62150;-78
2024/03/25 11:32:13;;;;;;;;;;;;;;;;;;106468;1250;61909;-79
2024/03/25 11:34:39;;;;;;;;;;;;;;;;;;106402;1253;62042;-78
2024/03/25 11:37:05;;;;;;;;;;;;;;;;;;106555;1254;62197;-81
2024/03/25 11:39:32;;;;;;;;;;;;;;;;;;107062;1251;62028;-81
2024/03/25 11:41:58;;;;;;;;;;;;;;;;;;106756;1254;62687;-78
2024/03/25 11:44:25;;;;;;;;;;;;;;;;;;106536;1251;62163;-83
2024/03/25 11:46:53;;;;;;;;;;;;;;;;;;106788;1251;62073;-83
2024/03/25 11:49:19;;;;;;;;;;;;;;;;;;107130;1251;62525;-81
2024/03/25 11:51:46;;;;;;;;;;;;;;;;;;106820;1250;62130;-78
2024/03/25 11:54:12;;;;;;;;;;;;;;;;;;106598;1254;62098;-83
2024/03/25 11:56:38;;;;;;;;;;;;;;;;;;106920;1251;62146;-83
2024/03/25 11:59:04;;;;;;;;;;;;;;;;;;107116;1250;61990;-82
2024/03/25 12:01:31;;;;;;;;;;;;;;;;;;106927;1250;62003;-80
2024/03/25 12:03:57;;;;;;;;;;;;;;;;;;106943;1254;62070;-80
2024/03/25 12:06:23;;;;;;;;;;;;;;;;;;107050;1253;62193;-83
2024/03/25 12:11:35;;;;;;;;;;;;;;;;;;107255;1254;64018;-82
2024/03/25 12:14:01;;;;;;;;;;;;;;;;;;107358;1248;62032;-80
2024/03/25 12:16:27;;;;;;;;;;;;;;;;;;107255;1250;62112;-80
2024/03/25 12:18:53;;;;;;;;;;;;;;;;;;107377;1253;62045;-83
2024/03/25 12:21:20;;;;;;;;;;;;;;;;;;107345;1250;62138;-83
2024/03/25 12:23:46;;;;;;;;;;;;;;;;;;107527;1251;61974;-82
2024/03/25 12:26:12;;;;;;;;;;;;;;;;;;107325;1251;62041;-80
2024/03/25 12:28:38;;;;;;;;;;;;;;;;;;107297;1254;62067;-82
2024/03/25 12:31:04;;;;;;;;;;;;;;;;;;107249;1251;62148;-82
2024/03/25 12:33:31;;;;;;;;;;;;;;;;;;107535;1251;60301;-80
2024/03/25 12:35:57;;;;;;;;;;;;;;;;;;107421;1251;62134;-81
2024/03/25 12:38:23;;;;;;;;;;;;;;;;;;107606;1250;61924;-81
2024/03/25 12:40:49;;;;;;;;;;;;;;;;;;107504;1251;62160;-79
2024/03/25 12:43:15;;;;;;;;;;;;;;;;;;106753;1251;62160;-81
2024/03/25 12:45:42;;;;;;;;;;;;;;;;;;107244;1251;62782;-79
2024/03/25 12:48:08;;;;;;;;;;;;;;;;;;107261;1250;61959;-79
2024/03/25 12:50:35;;;;;;;;;;;;;;;;;;107168;1250;62407;-79
2024/03/25 12:53:02;;;;;;;;;;;;;;;;;;107206;1251;62095;-81
2024/03/25 12:55:29;;;;;;;;;;;;;;;;;;107170;1254;61965;-79
2024/03/25 12:57:55;;;;;;;;;;;;;;;;;;107282;1253;62032;-81
2024/03/25 13:00:21;;;;;;;;;;;;;;;;;;107245;1249;63566;-81
2024/03/25 13:02:47;;;;;;;;;;;;;;;;;;107115;1250;62137;-79
2024/03/25 13:05:13;;;;;;;;;;;;;;;;;;107277;1250;62067;-79
2024/03/25 13:07:39;;;;;;;;;;;;;;;;;;107188;1254;62205;-78
2024/03/25 13:10:05;;;;;;;;;;;;;;;;;;107163;1250;62185;-82
2024/03/25 13:12:32;;;;;;;;;;;;;;;;;;108262;1251;60430;-79
2024/03/25 13:14:58;;;;;;;;;;;;;;;;;;107096;1251;62136;-79
2024/03/25 13:17:25;;;;;;;;;;;;;;;;;;107264;1250;61936;-82
2024/03/25 13:19:51;;;;;;;;;;;;;;;;;;107295;1249;62027;-81
2024/03/25 13:22:17;;;;;;;;;;;;;;;;;;107250;1250;63088;-78
2024/03/25 13:24:43;;;;;;;;;;;;;;;;;;107111;1250;62525;-81
2024/03/25 13:27:09;;;;;;;;;;;;;;;;;;107225;1254;62134;-81
2024/03/25 13:29:38;;;;;;;;;;;;;;;;;;107257;1249;61002;-81
2024/03/25 13:32:04;;;;;;;;;;;;;;;;;;107129;1250;62836;-79
2024/03/25 13:34:31;;;;;;;;;;;;;;;;;;107290;1250;62158;-79
2024/03/25 13:36:57;;;;;;;;;;;;;;;;;;107201;1254;62045;-81
2024/03/25 13:39:23;;;;;;;;;;;;;;;;;;107495;1250;62163;-81
2024/03/25 13:41:49;;;;;;;;;;;;;;;;;;107249;1249;62147;-78
2024/03/25 13:44:15;;;;;;;;;;;;;;;;;;106597;1254;62147;-81
2024/03/25 13:46:41;;;;;;;;;;;;;;;;;;107154;1250;62114;-79
2024/03/25 13:49:09;;;;;;;;;;;;;;;;;;107261;1249;63968;-81
2024/03/25 13:51:35;;;;;;;;;;;;;;;;;;107229;1250;62242;-81
2024/03/25 13:54:02;;;;;;;;;;;;;;;;;;107186;1249;62057;-78
2024/03/25 13:56:28;;;;;;;;;;;;;;;;;;106381;1253;62021;-81
2024/03/25 13:58:54;;;;;;;;;;;;;;;;;;106902;1254;62045;-78
2024/03/25 14:01:21;;;;;;;;;;;;;;;;;;106486;1254;63177;-79
2024/03/25 14:03:47;;;;;;;;;;;;;;;;;;106503;1250;62073;-78
2024/03/25 14:06:13;;;;;;;;;;;;;;;;;;106586;1251;61141;-82
2024/03/25 14:08:41;;;;;;;;;;;;;;;;;;107210;1250;63187;-79
2024/03/25 14:11:08;;;;;;;;;;;;;;;;;;107119;1248;62136;-78
2024/03/25 14:13:34;;;;;;;;;;;;;;;;;;107085;1252;62026;-81
2024/03/25 14:16:00;;;;;;;;;;;;;;;;;;106819;1251;62149;-81
2024/03/25 14:18:26;;;;;;;;;;;;;;;;;;107496;1249;62171;-78
2024/03/25 14:20:53;;;;;;;;;;;;;;;;;;107275;1250;61987;-79
2024/03/25 14:23:19;;;;;;;;;;;;;;;;;;107410;1251;61909;-79
2024/03/25 14:25:45;;;;;;;;;;;;;;;;;;106653;1251;62138;-79
2024/03/25 14:28:11;;;;;;;;;;;;;;;;;;106676;1249;62071;-78
2024/03/25 14:30:37;;;;;;;;;;;;;;;;;;106668;1250;62161;-79
2024/03/25 14:33:03;;;;;;;;;;;;;;;;;;106606;1250;62393;-78
2024/03/25 14:35:30;;;;;;;;;;;;;;;;;;106636;1251;62063;-81
2024/03/25 14:37:56;;;;;;;;;;;;;;;;;;106602;1248;62083;-81
2024/03/25 14:40:22;;;;;;;;;;;;;;;;;;106749;1254;62060;-81
2024/03/25 14:42:48;;;;;;;;;;;;;;;;;;107179;1249;62211;-79
2024/03/25 14:45:14;;;;;;;;;;;;;;;;;;106695;1250;62003;-82
2024/03/25 14:47:41;;;;;;;;;;;;;;;;;;107220;1254;61255;-81
2024/03/25 14:50:07;;;;;;;;;;;;;;;;;;107194;1250;62149;-79
2024/03/25 14:52:33;;;;;;;;;;;;;;;;;;107066;1250;62157;-81
2024/03/25 14:54:59;;;;;;;;;;;;;;;;;;107169;1251;61987;-81
2024/03/25 14:57:25;;;;;;;;;;;;;;;;;;107237;1249;62522;-81
2024/03/25 14:59:51;;;;;;;;;;;;;;;;;;107172;1249;62168;-78
2024/03/25 15:02:18;;;;;;;;;;;;;;;;;;107152;1248;62134;-81
2024/03/25 15:04:44;;;;;;;;;;;;;;;;;;107124;1248;63355;-79
2024/03/25 15:07:10;;;;;;;;;;;;;;;;;;106566;1253;62070;-81
2024/03/25 15:09:37;;;;;;;;;;;;;;;;;;107354;1250;62130;-79
2024/03/25 15:12:04;;;;;;;;;;;;;;;;;;107135;1250;62013;-82
2024/03/25 15:14:30;;;;;;;;;;;;;;;;;;107165;1249;62019;-79
2024/03/25 15:16:58;;;;;;;;;;;;;;;;;;106618;1250;62093;-81
2024/03/25 15:19:24;;;;;;;;;;;;;;;;;;107251;1250;62063;-83
2024/03/25 15:21:50;;;;;;;;;;;;;;;;;;107013;1250;62123;-83
2024/03/25 15:24:16;;;;;;;;;;;;;;;;;;107045;1249;62140;-79
2024/03/25 15:26:42;;;;;;;;;;;;;;;;;;107448;1251;62147;-82
2024/03/25 15:29:09;;;;;;;;;;;;;;;;;;107596;1249;61986;-82
2024/03/25 15:31:35;;;;;;;;;;;;;;;;;;107212;1250;62160;-80
2024/03/25 15:34:01;;;;;;;;;;;;;;;;;;107202;1254;62156;-80
2024/03/25 15:36:30;;;;;;;;;;;;;;;;;;107008;1250;62105;-79
2024/03/25 15:38:56;;;;;;;;;;;;;;;;;;107298;1251;62018;-80
2024/03/25 15:41:25;;;;;;;;;;;;;;;;;;107179;1251;62129;-82
2024/03/25 15:43:51;;;;;;;;;;;;;;;;;;107122;1250;61959;-79
2024/03/25 15:46:18;;;;;;;;;;;;;;;;;;106863;1253;62138;-82
2024/03/25 15:48:44;;;;;;;;;;;;;;;;;;106898;1249;59989;-81
2024/03/25 15:51:10;;;;;;;;;;;;;;;;;;107102;1254;62095;-82
2024/03/25 15:53:37;;;;;;;;;;;;;;;;;;106959;1249;61975;-80
2024/03/25 15:56:03;;;;;;;;;;;;;;;;;;106838;1250;62106;-80
2024/03/25 15:58:30;;;;;;;;;;;;;;;;;;106865;1253;62136;-82
2024/03/25 16:00:57;;;;;;;;;;;;;;;;;;107110;1250;62768;-79
2024/03/25 16:03:23;;;;;;;;;;;;;;;;;;106882;1249;62013;-79
2024/03/25 16:05:49;;;;;;;;;;;;;;;;;;106934;1250;62153;-82
2024/03/25 16:08:15;;;;;;;;;;;;;;;;;;106948;1253;59988;-78
2024/03/25 16:10:42;;;;;;;;;;;;;;;;;;106535;1250;62076;-80
2024/03/25 16:13:08;;;;;;;;;;;;;;;;;;106513;1250;62485;-78
2024/03/25 16:15:34;;;;;;;;;;;;;;;;;;106751;1253;62060;-82
2024/03/25 16:18:00;;;;;;;;;;;;;;;;;;107040;1250;62122;-82
2024/03/25 16:20:27;;;;;;;;;;;;;;;;;;107028;1251;62066;-82
2024/03/25 16:22:53;;;;;;;;;;;;;;;;;;106950;1253;62069;-79
2024/03/25 16:25:19;;;;;;;;;;;;;;;;;;107037;1250;62159;-82
2024/03/25 16:27:46;;;;;;;;;;;;;;;;;;107098;1251;62064;-79
2024/03/25 16:30:12;;;;;;;;;;;;;;;;;;106999;1251;62079;-82